createdAt,value
2022-08-26T09:43:15.543Z,44.84
2022-08-26T09:45:50.243Z,44.89
2022-08-26T09:48:35.522Z,44.93
2022-08-26T09:51:06.053Z,45.07
2022-08-26T09:53:35.753Z,44.65
2022-08-26T09:56:13.980Z,44.85
2022-08-26T09:58:42.773Z,44.56
2022-08-26T10:01:34.524Z,44.84
2022-08-26T10:04:08.934Z,44.55
2022-08-26T10:06:40.265Z,44.76
2022-08-26T10:09:10.941Z,44.71
2022-08-26T10:11:47.222Z,44.77
2022-08-26T10:14:17.947Z,45.02
2022-08-26T10:17:10.366Z,45.04
2022-08-26T10:19:56.289Z,44.75
2022-08-26T10:22:36.236Z,44.66
2022-08-26T10:25:06.077Z,44.69
2022-08-26T10:27:40.590Z,44.15
2022-08-26T10:30:20.155Z,44.24
2022-08-26T10:32:54.616Z,44.14
2022-08-26T10:35:20.585Z,44.45
2022-08-26T10:37:53.061Z,44.61
2022-08-26T10:40:25.009Z,44.31
2022-08-26T10:42:56.450Z,44.38
2022-08-26T10:45:26.468Z,44.10
2022-08-26T10:48:01.355Z,44.18
2022-08-26T10:50:37.580Z,44.08
2022-08-26T10:53:15.716Z,44.04
2022-08-26T10:55:49.997Z,43.82
2022-08-26T10:58:46.568Z,43.97
2022-08-26T11:01:40.842Z,43.86
2022-08-26T11:04:16.037Z,43.65
2022-08-26T11:06:45.176Z,43.74
2022-08-26T11:09:12.211Z,43.39
2022-08-26T11:16:56.577Z,43.76
2022-08-26T11:20:01.517Z,43.99
2022-08-26T11:22:31.240Z,44.02
2022-08-26T11:25:00.747Z,44.18
2022-08-26T11:32:53.649Z,44.02
2022-08-26T11:38:04.529Z,43.98
2022-08-26T11:40:32.649Z,44.25
2022-08-26T11:43:02.198Z,44.23
2022-08-26T11:45:45.744Z,43.73
2022-08-26T11:48:13.634Z,43.60
2022-08-26T11:50:39.395Z,43.79
2022-08-26T11:53:06.159Z,43.46
2022-08-26T11:55:34.030Z,43.45
2022-08-26T11:58:01.169Z,43.42
2022-08-26T12:00:33.278Z,43.41
2022-08-26T12:03:01.581Z,43.23
2022-08-26T12:05:31.085Z,43.19
2022-08-26T12:08:00.253Z,43.05
2022-08-26T12:10:29.832Z,43.26
2022-08-26T12:12:58.332Z,43.05
2022-08-26T12:15:25.203Z,43.19
2022-08-26T12:17:54.375Z,42.79
2022-08-26T12:23:04.189Z,43.71
2022-08-26T12:25:36.137Z,44.31
2022-08-26T12:28:03.357Z,44.56
2022-08-26T12:30:29.674Z,44.79
2022-08-26T12:33:22.421Z,44.50
2022-08-26T12:35:54.195Z,44.78
2022-08-26T12:38:23.336Z,45.06
2022-08-26T12:40:49.472Z,44.93
2022-08-26T12:43:38.017Z,45.22
2022-08-26T12:46:06.825Z,45.05
2022-08-26T12:48:35.288Z,45.06
2022-08-26T12:51:01.339Z,44.63
2022-08-26T12:53:28.989Z,45.04
2022-08-26T12:55:59.478Z,45.20
2022-08-26T12:58:40.201Z,45.42
2022-08-26T13:03:44.038Z,44.95
2022-08-26T13:06:15.668Z,45.02
2022-08-26T13:08:46.960Z,44.95
2022-08-26T13:11:20.581Z,44.98
2022-08-26T13:13:51.532Z,45.25
2022-08-26T13:16:18.843Z,45.21
2022-08-26T13:18:47.165Z,44.96
2022-08-26T13:21:17.202Z,44.90
2022-08-26T13:23:42.856Z,45.42
2022-08-26T13:26:08.507Z,45.43
2022-08-26T13:28:34.292Z,45.69
2022-08-26T13:31:00.008Z,45.28
2022-08-26T13:33:25.781Z,44.65
2022-08-26T13:35:53.253Z,44.42
2022-08-26T13:38:32.988Z,44.18
2022-08-26T13:40:59.277Z,43.87
2022-08-26T13:43:25.907Z,43.90
2022-08-26T13:45:51.833Z,43.72
2022-08-26T13:48:21.555Z,43.48
2022-08-26T13:50:48.914Z,43.38
2022-08-26T13:53:15.673Z,43.49
2022-08-26T13:55:42.427Z,43.25
2022-08-26T13:58:09.346Z,43.56
2022-08-26T14:00:36.587Z,43.45
2022-08-26T14:03:03.096Z,43.06
2022-08-26T14:05:29.221Z,43.20
2022-08-26T14:07:56.418Z,43.23
2022-08-26T14:10:23.868Z,42.94
2022-08-26T14:12:50.523Z,43.10
2022-08-26T14:15:17.750Z,42.98
2022-08-26T14:17:45.761Z,43.04
2022-08-26T14:20:15.306Z,42.83
2022-08-26T14:22:57.473Z,42.86
2022-08-26T14:25:28.422Z,42.98
2022-08-26T14:27:54.361Z,42.56
2022-08-26T14:30:20.612Z,42.80
2022-08-26T14:32:48.068Z,42.58
2022-08-26T14:35:17.271Z,42.35
2022-08-26T14:37:42.902Z,42.45
2022-08-26T14:40:09.263Z,42.46
2022-08-26T14:42:35.064Z,42.41
2022-08-26T14:45:03.031Z,42.25
2022-08-26T14:47:28.892Z,42.21
2022-08-26T14:49:54.605Z,42.13
2022-08-26T14:52:20.602Z,42.17
2022-08-26T14:54:46.364Z,42.26
2022-08-26T14:57:12.962Z,42.08
2022-08-26T14:59:42.264Z,42.18
2022-08-26T15:02:09.866Z,41.85
2022-08-26T15:04:39.721Z,42.00
2022-08-26T15:07:06.187Z,41.86
2022-08-26T15:09:34.967Z,41.90
2022-08-26T15:12:00.942Z,41.92
2022-08-26T15:14:29.738Z,41.85
2022-08-26T15:16:57.957Z,41.80
2022-08-26T15:19:24.664Z,41.91
2022-08-26T15:21:50.639Z,41.75
2022-08-26T15:24:19.515Z,41.66
2022-08-26T15:26:45.844Z,41.84
2022-08-26T15:29:11.624Z,41.69
2022-08-26T15:31:37.504Z,41.74
2022-08-26T15:34:06.302Z,41.62
2022-08-26T15:36:32.276Z,41.45
2022-08-26T15:38:59.477Z,41.48
2022-08-26T15:41:26.284Z,41.85
2022-08-26T15:43:52.068Z,41.62
2022-08-26T15:46:18.595Z,41.57
2022-08-26T15:48:44.351Z,41.62
2022-08-26T15:51:20.120Z,41.54
2022-08-26T15:53:45.901Z,41.38
2022-08-26T15:56:12.169Z,41.34
2022-08-26T15:58:37.829Z,41.50
2022-08-26T16:01:03.713Z,41.40
2022-08-26T16:03:29.383Z,41.49
2022-08-26T16:05:55.083Z,41.22
2022-08-26T16:08:21.465Z,41.33
2022-08-26T16:10:50.707Z,41.39
2022-08-26T16:13:18.506Z,41.27
2022-08-26T16:15:44.356Z,41.17
2022-08-26T16:18:10.190Z,41.35
2022-08-26T16:20:37.869Z,41.30
2022-08-26T16:23:05.067Z,41.24
2022-08-26T16:25:30.858Z,41.09
2022-08-26T16:27:56.901Z,41.23
2022-08-26T16:30:22.938Z,41.14
2022-08-26T16:32:48.635Z,41.25
2022-08-26T16:35:15.171Z,41.31
2022-08-26T16:37:41.280Z,41.32
2022-08-26T16:40:08.800Z,41.04
2022-08-26T16:42:35.395Z,41.03
2022-08-26T16:45:01.086Z,40.97
2022-08-26T16:47:26.764Z,40.94
2022-08-26T16:49:52.956Z,41.03
2022-08-26T16:52:18.714Z,40.88
2022-08-26T16:54:44.373Z,41.20
2022-08-26T16:57:11.298Z,40.93
2022-08-26T16:59:37.607Z,40.89
2022-08-26T17:02:04.138Z,41.08
2022-08-26T17:04:31.076Z,41.02
2022-08-26T17:06:57.941Z,41.04
2022-08-26T17:09:24.548Z,41.14
2022-08-26T17:11:50.768Z,40.96
2022-08-26T17:14:16.528Z,41.02
2022-08-26T17:16:43.811Z,41.07
2022-08-26T17:19:10.249Z,40.97
2022-08-26T17:21:36.364Z,40.85
2022-08-26T17:24:03.986Z,41.09
2022-08-26T17:26:29.684Z,40.82
2022-08-26T17:28:55.403Z,40.83
2022-08-26T17:31:22.430Z,40.82
2022-08-26T17:33:53.910Z,40.88
2022-08-26T17:36:20.508Z,40.97
2022-08-26T17:38:46.153Z,40.68
2022-08-26T17:41:15.121Z,40.88
2022-08-26T17:43:42.740Z,40.90
2022-08-26T17:46:09.902Z,40.77
2022-08-26T17:48:36.816Z,40.65
2022-08-26T17:51:12.008Z,40.82
2022-08-26T17:53:38.233Z,40.84
2022-08-26T17:56:10.514Z,40.75
2022-08-26T17:58:36.884Z,40.70
2022-08-26T18:01:03.009Z,40.78
2022-08-26T18:03:28.754Z,40.64
2022-08-26T18:05:54.568Z,40.67
2022-08-26T18:08:20.560Z,40.73
2022-08-26T18:10:46.241Z,40.67
2022-08-26T18:13:13.932Z,40.50
2022-08-26T18:15:40.840Z,40.52
2022-08-26T18:18:06.965Z,40.77
2022-08-26T18:20:32.709Z,40.74
2022-08-26T18:22:58.633Z,40.61
2022-08-26T18:25:27.707Z,40.46
2022-08-26T18:27:53.400Z,40.58
2022-08-26T18:30:20.556Z,40.50
2022-08-26T18:32:47.557Z,40.64
2022-08-26T18:35:13.703Z,40.42
2022-08-26T18:37:39.740Z,40.63
2022-08-26T18:40:07.298Z,40.53
2022-08-26T18:42:33.290Z,40.52
2022-08-26T18:44:58.926Z,40.25
2022-08-26T18:47:24.809Z,40.52
2022-08-26T18:49:53.672Z,40.50
2022-08-26T18:52:19.543Z,40.46
2022-08-26T18:54:46.195Z,40.39
2022-08-26T18:57:12.084Z,40.44
2022-08-26T18:59:37.847Z,40.43
2022-08-26T19:02:03.963Z,40.43
2022-08-26T19:04:32.315Z,40.39
2022-08-26T19:07:01.089Z,40.45
2022-08-26T19:09:36.439Z,40.54
2022-08-26T19:12:03.778Z,40.54
2022-08-26T19:14:31.316Z,40.63
2022-08-26T19:16:57.212Z,40.38
2022-08-26T19:19:24.706Z,40.26
2022-08-26T19:21:50.894Z,40.44
2022-08-26T19:24:17.394Z,40.64
2022-08-26T19:26:45.455Z,40.51
2022-08-26T19:29:11.915Z,40.46
2022-08-26T19:31:37.557Z,40.22
2022-08-26T19:34:04.422Z,40.51
2022-08-26T19:36:30.778Z,40.22
2022-08-26T19:38:57.277Z,40.44
2022-08-26T19:41:34.137Z,40.35
2022-08-26T19:44:07.393Z,40.48
2022-08-26T19:46:33.318Z,40.39
2022-08-26T19:48:59.061Z,40.12
2022-08-26T19:51:27.094Z,40.33
2022-08-26T19:53:54.066Z,40.17
2022-08-26T19:56:20.578Z,40.28
2022-08-26T19:58:46.637Z,40.41
2022-08-26T20:01:13.363Z,40.13
2022-08-26T20:03:39.576Z,40.11
2022-08-26T20:06:06.807Z,40.20
2022-08-26T20:08:33.570Z,40.47
2022-08-26T20:11:00.983Z,40.30
2022-08-26T20:13:27.373Z,40.25
2022-08-26T20:15:53.001Z,40.34
2022-08-26T20:18:38.537Z,40.18
2022-08-26T20:21:24.105Z,40.45
2022-08-26T20:23:50.794Z,40.15
2022-08-26T20:26:16.841Z,40.31
2022-08-26T20:28:42.654Z,40.09
2022-08-26T20:31:08.746Z,40.12
2022-08-26T20:33:46.124Z,40.04
2022-08-26T20:36:12.678Z,40.12
2022-08-26T20:38:38.358Z,39.97
2022-08-26T20:41:04.127Z,40.10
2022-08-26T20:43:29.822Z,40.34
2022-08-26T20:45:55.689Z,40.18
2022-08-26T20:48:21.631Z,40.22
2022-08-26T20:50:47.434Z,40.12
2022-08-26T20:53:13.149Z,40.22
2022-08-26T20:55:38.918Z,40.02
2022-08-26T20:58:04.621Z,40.09
2022-08-26T21:00:30.333Z,39.97
2022-08-26T21:02:56.029Z,40.24
2022-08-26T21:05:22.013Z,40.28
2022-08-26T21:07:47.811Z,40.21
2022-08-26T21:10:14.064Z,39.98
2022-08-26T21:12:40.012Z,40.11
2022-08-26T21:15:06.642Z,40.05
2022-08-26T21:17:32.916Z,39.98
2022-08-26T21:19:58.608Z,40.22
2022-08-26T21:22:24.337Z,40.16
2022-08-26T21:24:50.028Z,40.11
2022-08-26T21:27:23.055Z,40.09
2022-08-26T21:29:52.717Z,40.10
2022-08-26T21:32:18.473Z,39.92
2022-08-26T21:34:44.207Z,40.01
2022-08-26T21:37:16.625Z,39.87
2022-08-26T21:39:42.714Z,40.02
2022-08-26T21:42:08.344Z,40.16
2022-08-26T21:44:33.987Z,39.88
2022-08-26T21:46:59.616Z,39.95
2022-08-26T21:49:25.338Z,39.83
2022-08-26T21:51:51.118Z,40.18
2022-08-26T21:54:17.358Z,40.16
2022-08-26T21:56:45.696Z,40.11
2022-08-26T21:59:12.539Z,40.04
2022-08-26T22:01:38.231Z,40.02
2022-08-26T22:04:06.124Z,39.89
2022-08-26T22:06:33.742Z,39.94
2022-08-26T22:08:59.853Z,39.89
2022-08-26T22:11:26.893Z,40.01
2022-08-26T22:13:52.862Z,39.96
2022-08-26T22:16:19.005Z,39.92
2022-08-26T22:18:44.841Z,40.07
2022-08-26T22:21:15.495Z,39.83
2022-08-26T22:23:41.337Z,39.96
2022-08-26T22:26:09.436Z,39.89
2022-08-26T22:28:35.285Z,40.10
2022-08-26T22:31:01.368Z,39.85
2022-08-26T22:33:28.155Z,39.96
2022-08-26T22:35:54.636Z,40.06
2022-08-26T22:38:22.851Z,39.84
2022-08-26T22:40:51.095Z,39.93
2022-08-26T22:43:17.811Z,39.90
2022-08-26T22:45:47.330Z,39.90
2022-08-26T22:48:19.096Z,39.91
2022-08-26T22:50:46.260Z,39.97
2022-08-26T22:53:12.438Z,39.94
2022-08-26T22:55:38.230Z,39.86
2022-08-26T22:58:04.724Z,39.95
2022-08-26T23:00:32.053Z,39.67
2022-08-26T23:02:58.889Z,40.01
2022-08-26T23:05:24.565Z,39.79
2022-08-26T23:07:50.264Z,39.84
2022-08-26T23:10:15.973Z,39.86
2022-08-26T23:12:41.612Z,39.91
2022-08-26T23:15:09.641Z,39.99
2022-08-26T23:17:36.172Z,39.59
2022-08-26T23:20:04.537Z,39.86
2022-08-26T23:22:30.551Z,39.72
2022-08-26T23:24:56.961Z,39.71
2022-08-26T23:27:23.109Z,39.74
2022-08-26T23:29:48.923Z,39.83
2022-08-26T23:32:14.651Z,39.77
2022-08-26T23:34:55.280Z,39.80
2022-08-26T23:37:22.784Z,39.95
2022-08-26T23:39:50.863Z,39.74
2022-08-26T23:42:16.523Z,39.72
2022-08-26T23:44:42.765Z,39.71
2022-08-26T23:47:08.586Z,39.72
2022-08-26T23:49:35.062Z,39.69
2022-08-26T23:52:21.902Z,39.81
2022-08-26T23:54:49.060Z,39.74
2022-08-26T23:57:16.393Z,39.71
2022-08-26T23:59:42.377Z,39.60
